createdAt,value
2023-01-15T00:00:31.416Z,79.61
2023-01-15T00:06:10.846Z,79.36
2023-01-15T00:08:10.848Z,79.38
2023-01-15T00:10:21.112Z,79.66
2023-01-15T00:13:05.774Z,79.85
2023-01-15T00:15:12.059Z,79.6
2023-01-15T00:19:10.926Z,79.7
2023-01-15T00:22:10.866Z,79.93
2023-01-15T00:25:10.855Z,80.09
2023-01-15T00:27:21.169Z,79.97
2023-01-15T00:29:22.162Z,79.98
2023-01-15T00:32:42.806Z,80.32
2023-01-15T00:35:21.183Z,79.63
2023-01-15T00:39:10.826Z,79.92
2023-01-15T00:41:10.825Z,79.78
2023-01-15T00:44:10.835Z,79.35
2023-01-15T00:47:10.857Z,79.65
2023-01-15T00:50:10.873Z,79.36
2023-01-15T00:53:10.860Z,79.56
2023-01-15T00:56:10.850Z,79.5
2023-01-15T00:58:31.411Z,79.44
2023-01-15T01:01:11.001Z,79.43
2023-01-15T01:04:10.836Z,79.74
2023-01-15T01:06:10.833Z,79.74
2023-01-15T01:08:10.826Z,80.08
2023-01-15T01:11:10.875Z,79.79
2023-01-15T01:13:10.879Z,79.74
2023-01-15T01:15:10.847Z,79.52
2023-01-15T01:17:10.845Z,79.79
2023-01-15T01:19:10.855Z,80.01
2023-01-15T01:21:21.138Z,80.21
2023-01-15T01:24:10.854Z,79.76
2023-01-15T01:27:10.856Z,79.99
2023-01-15T01:31:10.884Z,80.27
2023-01-15T01:33:21.145Z,79.97
2023-01-15T01:35:21.150Z,80.42
2023-01-15T01:38:10.885Z,79.75
2023-01-15T01:42:10.844Z,79.91
2023-01-15T01:44:31.417Z,80.08
2023-01-15T01:47:10.838Z,79.83
2023-01-15T01:51:10.994Z,79.95
2023-01-15T01:54:10.858Z,79.8
2023-01-15T01:56:10.838Z,79.97
2023-01-15T01:58:21.157Z,79.62
2023-01-15T02:01:21.296Z,79.62
2023-01-15T02:04:10.850Z,79.88
2023-01-15T02:06:10.861Z,79.85
2023-01-15T02:08:10.890Z,79.94
2023-01-15T02:10:21.179Z,79.59
2023-01-15T02:14:17.572Z,79.59
2023-01-15T02:17:10.846Z,79.58
2023-01-15T02:19:10.884Z,79.58
2023-01-15T02:21:21.137Z,79.54
2023-01-15T02:23:21.134Z,79.5
2023-01-15T02:26:10.838Z,79.58
2023-01-15T02:29:10.824Z,79.54
2023-01-15T02:31:10.848Z,79.74
2023-01-15T02:36:10.847Z,79.64
2023-01-15T02:38:10.867Z,79.75
2023-01-15T02:41:10.874Z,79.54
2023-01-15T02:43:21.120Z,79.98
2023-01-15T02:46:10.868Z,79.75
2023-01-15T02:48:10.847Z,79.5
2023-01-15T02:51:10.867Z,79.57
2023-01-15T02:53:21.141Z,79.42
2023-01-15T02:56:10.866Z,78.84
2023-01-15T03:00:10.840Z,78.77
2023-01-15T03:02:21.134Z,78.25
2023-01-15T03:04:21.135Z,77.37
2023-01-15T03:07:31.423Z,77.17
2023-01-15T03:10:31.479Z,76.49
2023-01-15T03:14:04.762Z,76.78
2023-01-15T03:16:10.909Z,77.23
2023-01-15T03:19:10.874Z,76.55
2023-01-15T03:21:21.115Z,76.92
2023-01-15T03:24:10.854Z,76.22
2023-01-15T03:27:10.871Z,76.18
2023-01-15T03:29:10.867Z,75.45
2023-01-15T03:31:21.105Z,76.39
2023-01-15T03:34:22.219Z,76.05
2023-01-15T03:36:43.411Z,76.08
2023-01-15T03:38:46.766Z,76.39
2023-01-15T03:42:10.861Z,75.97
2023-01-15T03:46:11.081Z,75.03
2023-01-15T03:48:21.136Z,75.28
2023-01-15T03:50:22.190Z,75.5
2023-01-15T03:54:10.909Z,74.9
2023-01-15T03:56:10.860Z,74.91
2023-01-15T03:58:10.864Z,75.04
2023-01-15T04:00:31.451Z,74.31
2023-01-15T04:03:21.127Z,73.82
2023-01-15T04:06:10.847Z,74.15
2023-01-15T04:08:10.849Z,73.6
2023-01-15T04:10:10.922Z,73.32
2023-01-15T04:13:10.903Z,73.29
2023-01-15T04:16:10.861Z,72.66
2023-01-15T04:19:31.439Z,73.21
2023-01-15T04:22:10.858Z,72.94
2023-01-15T04:24:10.876Z,73.2
2023-01-15T04:27:10.839Z,73.76
2023-01-15T04:29:21.140Z,73.76
2023-01-15T04:32:10.876Z,73.65
2023-01-15T04:34:10.873Z,72.58
2023-01-15T04:36:10.838Z,71.81
2023-01-15T04:39:31.440Z,71.82
2023-01-15T04:42:21.136Z,71.48
2023-01-15T04:44:22.167Z,70.47
2023-01-15T04:46:33.135Z,69.32
2023-01-15T04:49:21.210Z,68.65
2023-01-15T04:52:10.868Z,69.93
2023-01-15T04:54:10.848Z,69.43
2023-01-15T04:56:10.883Z,69.84
2023-01-15T04:58:10.832Z,68.76
2023-01-15T05:01:10.931Z,68.54
2023-01-15T05:03:10.863Z,67.86
2023-01-15T05:06:10.861Z,68.74
2023-01-15T05:08:10.871Z,69.42
2023-01-15T05:12:10.862Z,69.5
2023-01-15T05:14:21.125Z,69.36
2023-01-15T05:16:21.186Z,68.61
2023-01-15T05:20:10.902Z,69.25
2023-01-15T05:24:10.886Z,69.07
2023-01-15T05:26:21.132Z,68.67
2023-01-15T05:28:21.130Z,68.71
2023-01-15T05:30:33.106Z,68.01
2023-01-15T05:33:21.124Z,67.53
2023-01-15T05:36:10.843Z,68.48
2023-01-15T05:38:10.879Z,68.63
2023-01-15T05:41:10.847Z,68.94
2023-01-15T05:44:10.826Z,69.12
2023-01-15T05:47:10.870Z,68.12
2023-01-15T05:49:21.132Z,67.89
2023-01-15T05:52:10.850Z,68.95
2023-01-15T05:55:10.841Z,69.11
2023-01-15T05:58:10.870Z,67.92
2023-01-15T06:00:21.139Z,67.81
2023-01-15T06:03:10.852Z,67.1
2023-01-15T06:06:10.844Z,66.52
2023-01-15T06:10:10.912Z,67.02
2023-01-15T06:12:21.146Z,67.12
2023-01-15T06:14:31.462Z,66.63
2023-01-15T06:18:10.868Z,67.83
2023-01-15T06:20:10.842Z,66.84
2023-01-15T06:23:21.157Z,67.37
2023-01-15T06:26:21.139Z,67.29
2023-01-15T06:30:10.837Z,67.22
2023-01-15T06:34:10.857Z,66.93
2023-01-15T06:36:21.157Z,67.07
2023-01-15T06:38:21.167Z,66.53
2023-01-15T06:42:10.857Z,66.79
2023-01-15T06:45:22.202Z,66.3
2023-01-15T06:48:21.152Z,67.55
2023-01-15T06:51:41.727Z,66.72
2023-01-15T06:54:21.122Z,68.06
2023-01-15T06:56:21.211Z,67.43
2023-01-15T06:58:31.463Z,67.13
2023-01-15T07:01:31.473Z,67.71
2023-01-15T07:04:10.897Z,66.77
2023-01-15T07:06:58.130Z,66.77
2023-01-15T07:09:21.139Z,66.73
2023-01-15T07:12:10.861Z,67.07
2023-01-15T07:14:10.917Z,66.35
2023-01-15T07:17:21.174Z,67.88
2023-01-15T07:19:31.446Z,66.31
2023-01-15T07:23:10.877Z,67.9
2023-01-15T07:27:10.878Z,65.99
2023-01-15T07:29:21.183Z,66.5
2023-01-15T07:31:21.251Z,67.66
2023-01-15T07:36:10.862Z,67.17
2023-01-15T07:38:43.410Z,66.71
2023-01-15T08:47:03.329Z,71.79
2023-01-15T08:49:30.653Z,71.73
2023-01-15T08:51:30.703Z,70.36
2023-01-15T08:53:40.956Z,69.48
2023-01-15T08:56:30.692Z,70.17
2023-01-15T08:59:30.683Z,67.73
2023-01-15T09:01:41.163Z,66.97
2023-01-15T09:03:40.936Z,66.71
2023-01-15T09:06:30.665Z,66.45
2023-01-15T09:09:30.725Z,65.98
2023-01-15T09:12:30.663Z,65.02
2023-01-15T09:15:30.672Z,65.76
2023-01-15T09:18:30.682Z,65.15
2023-01-15T09:20:31.235Z,64.59
2023-01-15T09:22:30.696Z,64.01
2023-01-15T09:25:40.962Z,63.84
2023-01-15T09:27:41.015Z,65.23
2023-01-15T09:33:30.700Z,64.01
2023-01-15T09:36:30.722Z,63.5
2023-01-15T09:39:30.670Z,64.54
2023-01-15T09:43:30.667Z,64.52
2023-01-15T09:45:30.694Z,62.67
2023-01-15T09:47:30.673Z,62.62
2023-01-15T09:50:30.670Z,63.55
2023-01-15T09:53:26.963Z,62.78
2023-01-15T09:56:26.919Z,61.76
2023-01-15T09:59:27.198Z,62.6
2023-01-15T10:01:33.549Z,62.26
2023-01-15T10:03:34.093Z,61.64
2023-01-15T10:06:26.986Z,60.86
2023-01-15T10:09:27.155Z,61.72
2023-01-15T10:12:27.591Z,61.23
2023-01-15T10:15:34.118Z,61.89
2023-01-15T10:18:34.503Z,61.2
2023-01-15T10:22:26.932Z,63.1
2023-01-15T10:24:26.905Z,60.83
2023-01-15T10:27:26.024Z,60.88
2023-01-15T10:29:33.751Z,62.02
2023-01-15T10:32:26.925Z,61.04
2023-01-15T10:34:27.112Z,61.63
2023-01-15T10:37:26.021Z,61.07
2023-01-15T10:39:34.314Z,62.13
2023-01-15T10:43:40.252Z,60.7
2023-01-15T10:46:40.097Z,60.25
2023-01-15T10:49:26.936Z,61.21
2023-01-15T10:52:27.851Z,60.95
2023-01-15T10:55:27.239Z,61.2
2023-01-15T10:58:26.000Z,62.19
2023-01-15T11:00:33.914Z,60.83
2023-01-15T11:04:26.945Z,59.78
2023-01-15T11:06:26.929Z,59.85
2023-01-15T11:09:07.096Z,60.69
2023-01-15T11:12:33.499Z,61.61
2023-01-15T11:15:26.032Z,61.41
2023-01-15T11:18:27.386Z,60.1
2023-01-15T11:21:27.591Z,61.26
2023-01-15T11:23:27.755Z,60.46
2023-01-15T11:26:27.528Z,60.86
2023-01-15T11:29:26.927Z,60.72
2023-01-15T11:31:27.227Z,61.24
2023-01-15T11:35:26.973Z,60.2
2023-01-15T11:37:27.054Z,59.78
2023-01-15T11:40:26.941Z,60.17
2023-01-15T11:42:26.977Z,60.54
2023-01-15T11:44:27.540Z,59.64
2023-01-15T11:47:27.162Z,59.71
2023-01-15T11:49:27.391Z,60.56
2023-01-15T11:52:33.517Z,60.13
2023-01-15T11:54:33.981Z,58.93
2023-01-15T11:57:26.935Z,59.7
2023-01-15T11:59:26.994Z,59.45
2023-01-15T12:02:27.824Z,59.47
2023-01-15T12:05:26.940Z,59.05
2023-01-15T12:10:33.512Z,58.81
2023-01-15T12:12:33.886Z,58.05
2023-01-15T12:15:27.038Z,58.77
2023-01-15T12:17:27.458Z,59.48
2023-01-15T12:20:26.951Z,59.29
2023-01-15T12:22:26.961Z,58.85
2023-01-15T12:26:27.034Z,57.83
2023-01-15T12:29:27.426Z,55.94
2023-01-15T12:32:26.953Z,56
2023-01-15T12:37:40.783Z,55.35
2023-01-15T12:40:33.718Z,55.09
2023-01-15T12:43:26.935Z,53.8
2023-01-15T12:45:27.054Z,53.76
2023-01-15T12:48:27.837Z,52.51
2023-01-15T12:51:26.936Z,51.58
2023-01-15T12:53:27.034Z,49.67
2023-01-15T12:55:30.448Z,52.95
2023-01-15T12:58:27.431Z,49.85
2023-01-15T13:01:26.968Z,50.09
2023-01-15T13:04:27.661Z,48.15
2023-01-15T13:07:26.945Z,48.62
2023-01-15T13:09:34.165Z,46.96
2023-01-15T13:12:26.017Z,48.49
2023-01-15T13:14:40.102Z,48.4
2023-01-15T13:17:34.076Z,46.62
2023-01-15T13:20:26.975Z,46.34
2023-01-15T13:23:26.950Z,46.66
2023-01-15T13:25:29.516Z,46.29
2023-01-15T13:27:27.578Z,46.1
2023-01-15T13:32:27.419Z,47.05
2023-01-15T13:35:26.019Z,47.06
2023-01-15T13:37:33.852Z,48.17
2023-01-15T13:40:26.940Z,49.19
2023-01-15T13:43:27.026Z,48.83
2023-01-15T13:45:27.805Z,48.2
2023-01-15T13:48:33.786Z,49.26
2023-01-15T13:51:33.490Z,47.86
2023-01-15T13:54:26.924Z,49.37
2023-01-15T13:56:27.392Z,48.76
2023-01-15T13:58:27.878Z,49.8
2023-01-15T14:01:27.056Z,49.4
2023-01-15T14:03:27.177Z,52.2
2023-01-15T14:05:27.596Z,49.79
2023-01-15T14:08:33.544Z,50.91
2023-01-15T14:10:33.734Z,50.38
2023-01-15T14:13:26.913Z,51.07
2023-01-15T14:15:53.501Z,50.09
2023-01-15T14:18:33.951Z,50.73
2023-01-15T14:20:34.249Z,49.92
2023-01-15T14:23:26.946Z,50.78
2023-01-15T14:28:26.918Z,55.65
2023-01-15T14:31:40.561Z,54.35
2023-01-15T14:35:27.042Z,53.77
2023-01-15T14:37:27.510Z,53.86
2023-01-15T14:40:26.967Z,53.53
2023-01-15T14:42:27.721Z,53.07
2023-01-15T14:45:27.190Z,52.68
2023-01-15T14:48:26.935Z,53.69
2023-01-15T14:50:33.915Z,52.97
2023-01-15T14:53:40.152Z,53.68
2023-01-15T14:56:26.973Z,52.95
2023-01-15T14:58:27.033Z,53.88
2023-01-15T15:00:27.150Z,53.57
2023-01-15T15:02:33.503Z,54.98
2023-01-15T15:05:27.169Z,58.08
2023-01-15T15:08:27.664Z,58.93
2023-01-15T15:11:26.935Z,59.5
2023-01-15T15:13:26.955Z,58.08
2023-01-15T15:16:27.087Z,57.93
2023-01-15T15:19:27.089Z,58.24
2023-01-15T15:21:34.410Z,57.08
2023-01-15T15:23:40.161Z,57.76
2023-01-15T15:26:26.921Z,58.3
2023-01-15T15:28:26.961Z,59.59
2023-01-15T15:33:34.407Z,58.26
2023-01-15T15:36:26.969Z,58.53
2023-01-15T15:40:27.633Z,58.83
2023-01-15T15:43:33.659Z,57.92
2023-01-15T15:46:39.191Z,57.36
2023-01-15T15:48:40.560Z,57.62
2023-01-15T15:51:33.530Z,57.61
2023-01-15T15:53:33.922Z,57.34
2023-01-15T15:56:27.022Z,57.29
2023-01-15T15:59:26.943Z,57.37
2023-01-15T16:01:26.979Z,57.8
2023-01-15T16:04:27.117Z,56.86
2023-01-15T16:07:27.000Z,56.65
2023-01-15T16:09:27.392Z,56.78
2023-01-15T16:12:33.574Z,57.09
2023-01-15T16:14:33.986Z,57.22
2023-01-15T16:17:26.950Z,57.03
2023-01-15T16:19:27.534Z,55.8
2023-01-15T16:21:33.923Z,56.14
2023-01-15T16:25:26.945Z,56.76
2023-01-15T16:27:40.407Z,56.09
2023-01-15T16:30:34.080Z,56.34
2023-01-15T16:34:33.514Z,55.69
2023-01-15T16:36:33.520Z,56.5
2023-01-15T16:39:27.359Z,55.51
2023-01-15T16:42:27.809Z,56.64
2023-01-15T16:45:33.545Z,56.41
2023-01-15T16:48:26.941Z,55.97
2023-01-15T16:50:27.514Z,56.09
2023-01-15T16:53:26.953Z,54.72
2023-01-15T16:55:34.246Z,55.92
2023-01-15T16:58:27.129Z,55.29
2023-01-15T17:02:27.523Z,54.97
2023-01-15T17:05:26.923Z,54.95
2023-01-15T17:07:33.773Z,55.25
2023-01-15T17:10:26.921Z,55.33
2023-01-15T17:12:26.926Z,55.42
2023-01-15T17:14:26.934Z,55.44
2023-01-15T17:16:33.929Z,56.21
2023-01-15T17:21:26.896Z,55.9
2023-01-15T17:23:27.247Z,55.94
2023-01-15T17:26:26.021Z,56.73
2023-01-15T17:28:33.523Z,55.03
2023-01-15T17:31:26.955Z,55.16
2023-01-15T17:33:26.917Z,55.17
2023-01-15T17:35:26.949Z,55.9
2023-01-15T17:37:27.754Z,56.04
2023-01-15T17:39:33.571Z,55.66
2023-01-15T17:42:27.000Z,55.5
2023-01-15T17:44:27.109Z,55.91
2023-01-15T17:47:26.963Z,55.69
2023-01-15T17:50:33.487Z,55.49
2023-01-15T17:52:33.816Z,55.19
2023-01-15T17:55:26.917Z,56.21
2023-01-15T17:58:26.931Z,55.5
2023-01-15T18:00:33.583Z,55.71
2023-01-15T18:02:40.373Z,55.39
2023-01-15T18:05:26.924Z,55.6
2023-01-15T18:07:26.936Z,56.14
2023-01-15T18:09:27.035Z,55.25
2023-01-15T18:11:27.727Z,55.67
2023-01-15T18:13:40.973Z,55.05
2023-01-15T18:16:41.138Z,55.43
2023-01-15T18:19:30.675Z,55.69
2023-01-15T18:21:40.940Z,54.63
2023-01-15T18:24:51.220Z,54.92
2023-01-15T18:27:40.978Z,54.83
2023-01-15T18:30:40.977Z,54.86
2023-01-15T18:33:41.034Z,54.77
2023-01-15T18:36:30.662Z,54.76
2023-01-15T18:38:30.714Z,53.83
2023-01-15T18:41:30.715Z,54.61
2023-01-15T18:43:40.947Z,54.69
2023-01-15T18:45:40.943Z,54.59
2023-01-15T18:48:30.699Z,55.64
2023-01-15T18:51:30.676Z,55.38
2023-01-15T18:54:30.673Z,55.84
2023-01-15T18:57:30.660Z,56.14
2023-01-15T18:59:30.676Z,56.38
2023-01-15T19:02:30.775Z,55.88
2023-01-15T19:05:30.657Z,55.99
2023-01-15T19:07:30.695Z,56.7
2023-01-15T19:09:30.693Z,56.39
2023-01-15T19:13:30.651Z,56.75
2023-01-15T19:15:40.930Z,56.56
2023-01-15T19:17:40.976Z,56.81
2023-01-15T19:20:30.659Z,56.94
2023-01-15T19:22:30.727Z,56.1
